createdAt,value
2023-03-21T00:07:41.864Z,19.40
2023-03-21T00:18:11.564Z,20.10
2023-03-21T00:28:37.147Z,19.70
2023-03-21T00:39:03.930Z,20.70
2023-03-21T00:49:33.799Z,22.70
2023-03-21T00:59:59.502Z,20.20
2023-03-21T01:10:25.129Z,18.80
2023-03-21T01:20:51.616Z,16.40
2023-03-21T01:31:19.085Z,14.90
2023-03-21T01:41:45.492Z,15.90
2023-03-21T01:52:26.449Z,14.70
2023-03-21T02:03:11.685Z,15.90
2023-03-21T02:13:39.205Z,18.90
2023-03-21T02:24:54.505Z,20.00
2023-03-21T02:35:47.148Z,17.20
2023-03-21T02:46:24.376Z,15.40
2023-03-21T02:56:54.284Z,16.90
2023-03-21T03:18:01.601Z,13.70
2023-03-21T03:28:31.928Z,15.10
2023-03-21T03:38:58.691Z,13.60
2023-03-21T03:49:27.777Z,14.00
2023-03-21T03:59:53.248Z,13.90
2023-03-21T04:10:19.927Z,16.40
2023-03-21T04:20:46.066Z,14.90
2023-03-21T04:31:24.422Z,11.70
2023-03-21T04:41:51.330Z,13.90
2023-03-21T04:52:17.038Z,11.90
2023-03-21T05:02:42.553Z,10.50
2023-03-21T05:13:08.690Z,11.30
2023-03-21T05:23:38.554Z,9.80
2023-03-21T05:34:04.726Z,16.70
2023-03-21T05:44:30.652Z,19.80
2023-03-21T05:54:56.243Z,16.80
2023-03-21T06:05:22.267Z,13.90
2023-03-21T06:15:48.374Z,13.90
2023-03-21T06:26:14.124Z,12.80
2023-03-21T06:36:40.419Z,14.60
2023-03-21T06:47:07.077Z,13.20
2023-03-21T06:57:33.490Z,11.60
2023-03-21T07:08:01.394Z,10.80
2023-03-21T07:18:27.304Z,10.80
2023-03-21T07:28:53.076Z,12.10
2023-03-21T07:39:20.594Z,13.40
2023-03-21T07:49:46.165Z,15.00
2023-03-21T08:00:23.032Z,16.10
2023-03-21T08:10:49.076Z,18.30
2023-03-21T08:21:14.806Z,19.20
2023-03-21T08:31:48.700Z,18.20
2023-03-21T08:42:14.002Z,16.10
2023-03-21T08:52:39.904Z,18.80
2023-03-21T09:03:06.273Z,18.30
2023-03-21T09:13:32.531Z,22.90
2023-03-21T09:24:00.129Z,15.60
2023-03-21T09:34:26.679Z,16.00
2023-03-21T09:45:02.730Z,17.70
2023-03-21T09:55:32.069Z,20.00
2023-03-21T10:06:01.612Z,18.20
2023-03-21T10:16:30.812Z,17.20
2023-03-21T10:26:58.152Z,18.60
2023-03-21T10:37:24.550Z,18.60
2023-03-21T10:47:53.495Z,18.00
2023-03-21T10:58:27.315Z,16.50
2023-03-21T11:08:56.039Z,16.60
2023-03-21T11:19:30.335Z,15.90
2023-03-21T11:29:57.575Z,18.40
2023-03-21T11:40:26.220Z,19.20
2023-03-21T11:50:57.672Z,18.90
2023-03-21T12:01:30.702Z,17.30
2023-03-21T12:12:07.823Z,19.70
2023-03-21T12:22:42.704Z,17.50
2023-03-21T12:33:21.475Z,15.20
2023-03-21T12:43:55.176Z,14.10
2023-03-21T12:54:28.563Z,17.30
2023-03-21T13:05:04.702Z,16.60
2023-03-21T13:15:52.728Z,17.90
2023-03-21T13:26:18.827Z,16.70
2023-03-21T13:36:49.378Z,17.80
2023-03-21T13:47:42.513Z,19.70
2023-03-21T13:58:25.585Z,18.40
2023-03-21T14:08:51.950Z,19.20
2023-03-21T14:19:17.789Z,19.50
2023-03-21T14:29:43.900Z,17.60
2023-03-21T14:40:22.411Z,17.30
2023-03-21T14:50:50.669Z,17.20
2023-03-21T15:01:26.381Z,18.80
2023-03-21T15:11:55.093Z,15.90
2023-03-21T15:22:30.545Z,18.30
2023-03-21T15:32:56.869Z,18.90
2023-03-21T15:43:22.829Z,18.50
2023-03-21T15:53:48.488Z,17.70
2023-03-21T16:04:14.703Z,21.90
2023-03-21T16:14:42.880Z,20.60
2023-03-21T16:25:10.551Z,21.60
2023-03-21T16:35:36.623Z,23.70
2023-03-21T16:46:03.337Z,24.80
2023-03-21T16:56:31.491Z,34.50
2023-03-21T17:06:58.155Z,25.10
2023-03-21T17:17:24.092Z,17.70
2023-03-21T17:27:50.909Z,16.10
2023-03-21T17:38:18.761Z,18.20
2023-03-21T17:48:46.231Z,20.10
2023-03-21T17:59:15.481Z,20.90
2023-03-21T18:09:41.607Z,25.00
2023-03-21T18:20:10.420Z,23.30
2023-03-21T18:30:56.405Z,27.10
2023-03-21T18:41:22.983Z,28.40
2023-03-21T18:51:48.805Z,27.70
2023-03-21T19:02:16.859Z,40.50
2023-03-21T19:12:42.785Z,31.90
2023-03-21T19:23:10.026Z,24.10
2023-03-21T19:33:36.960Z,24.80
2023-03-21T19:44:02.641Z,25.00
2023-03-21T19:54:30.261Z,31.80
2023-03-21T20:04:56.594Z,36.80
2023-03-21T20:15:25.943Z,38.60
2023-03-21T20:25:53.864Z,36.00
2023-03-21T20:36:38.254Z,48.50
2023-03-21T20:47:06.664Z,30.40
2023-03-21T20:57:34.079Z,34.10
2023-03-21T21:08:00.888Z,29.20
2023-03-21T21:18:26.414Z,35.10
2023-03-21T21:28:53.283Z,30.20
2023-03-21T21:39:19.031Z,35.20
2023-03-21T21:49:45.156Z,32.30
2023-03-21T22:00:13.711Z,28.60
2023-03-21T22:21:05.071Z,31.30
2023-03-21T22:31:30.973Z,25.20
2023-03-21T22:42:00.978Z,29.40
2023-03-21T22:52:26.737Z,27.60
2023-03-21T23:02:52.540Z,27.10
2023-03-21T23:13:18.119Z,29.10
2023-03-21T23:23:50.309Z,23.70
2023-03-21T23:34:16.388Z,20.80
2023-03-21T23:44:42.452Z,20.70
2023-03-21T23:55:09.785Z,21.70
